sensor_id;sensor_type;location;lat;lon;timestamp;pressure;altitude;pressure_sealevel;temperature;humidity
69198;BME280;56311;50.298;8.514;2022-08-11T00:02:27;98355.25;;;16.27;57.04
69198;BME280;56311;50.298;8.514;2022-08-11T00:04:56;98362.84;;;16.30;56.95
69198;BME280;56311;50.298;8.514;2022-08-11T00:10:11;98355.91;;;16.23;56.69
69198;BME280;56311;50.298;8.514;2022-08-11T00:12:39;98355.94;;;16.10;57.87
69198;BME280;56311;50.298;8.514;2022-08-11T00:15:07;98353.59;;;16.17;57.08
69198;BME280;56311;50.298;8.514;2022-08-11T00:17:36;98356.63;;;16.15;57.43
69198;BME280;56311;50.298;8.514;2022-08-11T00:20:06;98357.22;;;16.12;57.63
69198;BME280;56311;50.298;8.514;2022-08-11T00:22:42;98359.97;;;16.12;57.17
69198;BME280;56311;50.298;8.514;2022-08-11T00:25:11;98359.69;;;16.14;56.97
69198;BME280;56311;50.298;8.514;2022-08-11T00:27:40;98357.88;;;16.09;57.81
69198;BME280;56311;50.298;8.514;2022-08-11T00:32:38;98371.63;;;16.04;57.76
69198;BME280;56311;50.298;8.514;2022-08-11T00:35:10;98360.31;;;15.97;56.55
69198;BME280;56311;50.298;8.514;2022-08-11T00:37:58;98365.19;;;16.00;57.16
69198;BME280;56311;50.298;8.514;2022-08-11T00:40:32;98366.78;;;16.01;57.33
69198;BME280;56311;50.298;8.514;2022-08-11T00:43:16;98363.56;;;15.99;57.96
69198;BME280;56311;50.298;8.514;2022-08-11T00:45:52;98361.47;;;15.96;57.67
69198;BME280;56311;50.298;8.514;2022-08-11T00:48:47;98358.59;;;16.01;56.67
69198;BME280;56311;50.298;8.514;2022-08-11T00:51:24;98358.09;;;15.99;57.66
69198;BME280;56311;50.298;8.514;2022-08-11T00:54:56;98354.84;;;15.97;57.69
69198;BME280;56311;50.298;8.514;2022-08-11T00:57:51;98358.03;;;15.90;57.63
69198;BME280;56311;50.298;8.514;2022-08-11T01:00:22;98357.09;;;15.81;58.13
69198;BME280;56311;50.298;8.514;2022-08-11T01:03:17;98359.34;;;15.79;58.82
69198;BME280;56311;50.298;8.514;2022-08-11T01:06:05;98363.00;;;15.74;58.85
69198;BME280;56311;50.298;8.514;2022-08-11T01:09:10;98358.88;;;15.63;58.86
69198;BME280;56311;50.298;8.514;2022-08-11T01:31:35;98371.34;;;15.27;60.88
69198;BME280;56311;50.298;8.514;2022-08-11T01:40:29;98369.53;;;15.22;60.83
69198;BME280;56311;50.298;8.514;2022-08-11T01:43:36;98373.16;;;15.18;61.17
69198;BME280;56311;50.298;8.514;2022-08-11T01:46:43;98367.31;;;15.10;61.25
69198;BME280;56311;50.298;8.514;2022-08-11T01:49:20;98370.34;;;15.09;61.78
69198;BME280;56311;50.298;8.514;2022-08-11T01:52:16;98362.56;;;15.02;62.13
69198;BME280;56311;50.298;8.514;2022-08-11T01:55:08;98377.00;;;15.03;61.72
69198;BME280;56311;50.298;8.514;2022-08-11T01:57:43;98366.09;;;15.03;61.31
69198;BME280;56311;50.298;8.514;2022-08-11T02:00:17;98389.22;;;15.05;62.20
69198;BME280;56311;50.298;8.514;2022-08-11T02:02:51;98382.63;;;14.92;61.55
69198;BME280;56311;50.298;8.514;2022-08-11T02:05:48;98386.25;;;14.88;63.18
69198;BME280;56311;50.298;8.514;2022-08-11T02:08:27;98383.31;;;14.84;62.36
69198;BME280;56311;50.298;8.514;2022-08-11T02:11:04;98381.00;;;14.77;63.32
69198;BME280;56311;50.298;8.514;2022-08-11T02:14:06;98375.34;;;14.74;62.80
69198;BME280;56311;50.298;8.514;2022-08-11T02:16:48;98377.03;;;14.70;63.39
69198;BME280;56311;50.298;8.514;2022-08-11T02:19:24;98382.56;;;14.64;63.89
69198;BME280;56311;50.298;8.514;2022-08-11T02:22:16;98370.50;;;14.52;63.91
69198;BME280;56311;50.298;8.514;2022-08-11T02:25:10;98377.78;;;14.56;63.29
69198;BME280;56311;50.298;8.514;2022-08-11T02:27:47;98381.03;;;14.58;64.13
69198;BME280;56311;50.298;8.514;2022-08-11T02:30:20;98385.94;;;14.56;63.86
69198;BME280;56311;50.298;8.514;2022-08-11T02:32:51;98378.19;;;14.49;64.31
69198;BME280;56311;50.298;8.514;2022-08-11T02:35:45;98387.91;;;14.37;64.79
69198;BME280;56311;50.298;8.514;2022-08-11T02:38:18;98389.22;;;14.39;64.06
69198;BME280;56311;50.298;8.514;2022-08-11T02:40:55;98382.16;;;14.38;64.41
69198;BME280;56311;50.298;8.514;2022-08-11T02:43:28;98372.09;;;14.39;65.14
69198;BME280;56311;50.298;8.514;2022-08-11T02:46:05;98381.66;;;14.36;65.06
69198;BME280;56311;50.298;8.514;2022-08-11T02:48:52;98374.69;;;14.30;65.18
69198;BME280;56311;50.298;8.514;2022-08-11T02:52:02;98377.41;;;14.30;65.14
69198;BME280;56311;50.298;8.514;2022-08-11T02:54:37;98379.91;;;14.26;65.46
69198;BME280;56311;50.298;8.514;2022-08-11T02:57:17;98381.91;;;14.21;66.30
69198;BME280;56311;50.298;8.514;2022-08-11T02:59:50;98378.97;;;14.17;65.82
69198;BME280;56311;50.298;8.514;2022-08-11T03:02:40;98385.00;;;14.14;66.23
69198;BME280;56311;50.298;8.514;2022-08-11T03:05:21;98368.47;;;14.10;65.99
69198;BME280;56311;50.298;8.514;2022-08-11T03:08:12;98377.50;;;14.06;66.40
69198;BME280;56311;50.298;8.514;2022-08-11T03:10:50;98377.28;;;14.02;66.75
69198;BME280;56311;50.298;8.514;2022-08-11T03:13:47;98376.03;;;13.94;66.83
69198;BME280;56311;50.298;8.514;2022-08-11T03:16:45;98380.31;;;14.00;66.35
69198;BME280;56311;50.298;8.514;2022-08-11T03:19:29;98377.72;;;13.90;67.09
69198;BME280;56311;50.298;8.514;2022-08-11T03:22:08;98378.03;;;13.89;66.54
69198;BME280;56311;50.298;8.514;2022-08-11T03:24:52;98367.97;;;13.89;66.79
69198;BME280;56311;50.298;8.514;2022-08-11T03:27:28;98369.28;;;13.92;66.55
69198;BME280;56311;50.298;8.514;2022-08-11T03:30:10;98369.56;;;13.90;66.44
69198;BME280;56311;50.298;8.514;2022-08-11T03:32:48;98374.50;;;13.88;67.22
69198;BME280;56311;50.298;8.514;2022-08-11T03:35:42;98369.19;;;13.78;67.27
69198;BME280;56311;50.298;8.514;2022-08-11T03:38:14;98379.78;;;13.79;67.57
69198;BME280;56311;50.298;8.514;2022-08-11T03:41:01;98374.41;;;13.74;67.14
69198;BME280;56311;50.298;8.514;2022-08-11T03:44:22;98374.41;;;13.74;67.14
69198;BME280;56311;50.298;8.514;2022-08-11T03:50:03;98366.47;;;13.59;68.54
69198;BME280;56311;50.298;8.514;2022-08-11T03:52:52;98370.59;;;13.56;68.46
69198;BME280;56311;50.298;8.514;2022-08-11T03:55:32;98367.63;;;13.52;68.06
69198;BME280;56311;50.298;8.514;2022-08-11T04:04:28;98377.25;;;13.45;68.68
69198;BME280;56311;50.298;8.514;2022-08-11T04:07:41;98381.94;;;13.39;68.95
69198;BME280;56311;50.298;8.514;2022-08-11T04:10:45;98370.81;;;13.35;69.16
69198;BME280;56311;50.298;8.514;2022-08-11T04:16:36;98381.38;;;13.42;69.39
69198;BME280;56311;50.298;8.514;2022-08-11T04:19:43;98374.06;;;13.37;69.85
69198;BME280;56311;50.298;8.514;2022-08-11T04:22:39;62402.38;;;-147.88;100.00
69198;BME280;56311;50.298;8.514;2022-08-11T04:25:28;98385.88;;;13.28;70.71
69198;BME280;56311;50.298;8.514;2022-08-11T04:28:23;98373.88;;;13.29;70.38
69198;BME280;56311;50.298;8.514;2022-08-11T04:31:16;98369.78;;;13.31;100.00
69198;BME280;56311;50.298;8.514;2022-08-11T04:34:35;62402.38;;;-147.88;100.00
69198;BME280;56311;50.298;8.514;2022-08-11T04:37:24;62402.38;;;-147.88;100.00
69198;BME280;56311;50.298;8.514;2022-08-11T04:43:25;62402.38;;;-147.88;100.00
69198;BME280;56311;50.298;8.514;2022-08-11T04:46:25;62402.38;;;-147.88;100.00
69198;BME280;56311;50.298;8.514;2022-08-11T04:49:12;62402.38;;;-147.88;100.00
69198;BME280;56311;50.298;8.514;2022-08-11T04:55:44;62402.38;;;-147.88;100.00
69198;BME280;56311;50.298;8.514;2022-08-11T04:58:59;62402.38;;;-147.88;100.00
69198;BME280;56311;50.298;8.514;2022-08-11T05:02:23;62402.38;;;-147.88;100.00
69198;BME280;56311;50.298;8.514;2022-08-11T05:05:06;62402.38;;;-147.88;100.00
69198;BME280;56311;50.298;8.514;2022-08-11T05:11:27;62402.38;;;-147.88;100.00
69198;BME280;56311;50.298;8.514;2022-08-11T05:14:23;62402.38;;;-147.88;100.00
69198;BME280;56311;50.298;8.514;2022-08-11T05:17:20;62402.38;;;-147.88;100.00
69198;BME280;56311;50.298;8.514;2022-08-11T05:20:10;62402.38;;;-147.88;100.00
69198;BME280;56311;50.298;8.514;2022-08-11T05:23:00;62402.38;;;-147.88;100.00
69198;BME280;56311;50.298;8.514;2022-08-11T05:25:51;62402.38;;;-147.88;100.00
69198;BME280;56311;50.298;8.514;2022-08-11T05:29:02;62402.38;;;-147.88;100.00
69198;BME280;56311;50.298;8.514;2022-08-11T05:31:55;62402.38;;;-147.88;100.00
69198;BME280;56311;50.298;8.514;2022-08-11T05:34:46;62402.38;;;-147.88;100.00
69198;BME280;56311;50.298;8.514;2022-08-11T05:37:23;62402.38;;;-147.88;100.00
69198;BME280;56311;50.298;8.514;2022-08-11T05:40:00;62402.38;;;-147.88;100.00
69198;BME280;56311;50.298;8.514;2022-08-11T05:42:54;62402.38;;;-147.88;100.00
69198;BME280;56311;50.298;8.514;2022-08-11T05:45:43;62402.38;;;-147.88;100.00
69198;BME280;56311;50.298;8.514;2022-08-11T05:48:35;62402.38;;;-147.88;100.00
69198;BME280;56311;50.298;8.514;2022-08-11T05:51:22;62402.38;;;-147.88;100.00
69198;BME280;56311;50.298;8.514;2022-08-11T05:54:21;62402.38;;;-147.88;100.00
69198;BME280;56311;50.298;8.514;2022-08-11T05:57:18;62402.38;;;-147.88;100.00
69198;BME280;56311;50.298;8.514;2022-08-11T06:00:07;62402.38;;;-147.88;100.00
69198;BME280;56311;50.298;8.514;2022-08-11T06:02:41;62402.38;;;-147.88;100.00
69198;BME280;56311;50.298;8.514;2022-08-11T06:05:10;62402.38;;;-147.88;100.00
69198;BME280;56311;50.298;8.514;2022-08-11T06:07:38;62402.38;;;-147.88;100.00
69198;BME280;56311;50.298;8.514;2022-08-11T06:10:25;62402.38;;;-147.88;100.00
69198;BME280;56311;50.298;8.514;2022-08-11T06:12:53;62402.38;;;-147.88;100.00
69198;BME280;56311;50.298;8.514;2022-08-11T06:15:22;62402.38;;;-147.88;100.00
69198;BME280;56311;50.298;8.514;2022-08-11T06:17:54;62402.38;;;-147.88;100.00
69198;BME280;56311;50.298;8.514;2022-08-11T06:20:23;62402.38;;;-147.88;100.00
69198;BME280;56311;50.298;8.514;2022-08-11T06:22:56;62402.38;;;-147.88;100.00
69198;BME280;56311;50.298;8.514;2022-08-11T06:25:29;62402.38;;;-147.88;100.00
69198;BME280;56311;50.298;8.514;2022-08-11T06:27:57;62402.38;;;-147.88;100.00
69198;BME280;56311;50.298;8.514;2022-08-11T06:30:33;62402.38;;;-147.88;100.00
69198;BME280;56311;50.298;8.514;2022-08-11T06:33:08;62402.38;;;-147.88;100.00
69198;BME280;56311;50.298;8.514;2022-08-11T06:35:45;62402.38;;;-147.88;100.00
69198;BME280;56311;50.298;8.514;2022-08-11T06:38:28;62402.38;;;-147.88;100.00
69198;BME280;56311;50.298;8.514;2022-08-11T06:41:06;62402.38;;;-147.88;100.00
69198;BME280;56311;50.298;8.514;2022-08-11T06:44:14;62402.38;;;-147.88;100.00
69198;BME280;56311;50.298;8.514;2022-08-11T06:46:45;62402.38;;;-147.88;100.00
69198;BME280;56311;50.298;8.514;2022-08-11T06:49:17;62402.38;;;-147.88;100.00
69198;BME280;56311;50.298;8.514;2022-08-11T06:52:04;62402.38;;;-147.88;100.00
69198;BME280;56311;50.298;8.514;2022-08-11T06:54:53;62402.38;;;-147.88;100.00
69198;BME280;56311;50.298;8.514;2022-08-11T06:57:32;62402.38;;;-147.88;100.00
69198;BME280;56311;50.298;8.514;2022-08-11T07:00:19;62402.38;;;-147.88;100.00
69198;BME280;56311;50.298;8.514;2022-08-11T07:03:02;62402.38;;;-147.88;100.00
69198;BME280;56311;50.298;8.514;2022-08-11T07:05:46;62402.38;;;-147.88;100.00
69198;BME280;56311;50.298;8.514;2022-08-11T07:12:02;62402.38;;;-147.88;100.00
69198;BME280;56311;50.298;8.514;2022-08-11T07:14:54;62402.38;;;-147.88;100.00
69198;BME280;56311;50.298;8.514;2022-08-11T07:17:43;62402.38;;;-147.88;100.00
69198;BME280;56311;50.298;8.514;2022-08-11T07:20:16;62402.38;;;-147.88;100.00
69198;BME280;56311;50.298;8.514;2022-08-11T07:23:08;62402.38;;;-147.88;100.00
69198;BME280;56311;50.298;8.514;2022-08-11T07:25:55;62402.38;;;-147.88;100.00
69198;BME280;56311;50.298;8.514;2022-08-11T07:28:46;62402.38;;;-147.88;100.00
69198;BME280;56311;50.298;8.514;2022-08-11T07:31:33;62402.38;;;-147.88;100.00
69198;BME280;56311;50.298;8.514;2022-08-11T07:34:14;62402.38;;;-147.88;100.00
69198;BME280;56311;50.298;8.514;2022-08-11T07:36:49;62402.38;;;-147.88;100.00
69198;BME280;56311;50.298;8.514;2022-08-11T07:39:21;62402.38;;;-147.88;100.00
69198;BME280;56311;50.298;8.514;2022-08-11T07:41:51;62402.38;;;-147.88;100.00
69198;BME280;56311;50.298;8.514;2022-08-11T07:44:20;62402.38;;;-147.88;100.00
69198;BME280;56311;50.298;8.514;2022-08-11T07:46:56;62402.38;;;-147.88;100.00
69198;BME280;56311;50.298;8.514;2022-08-11T07:49:44;62402.38;;;-147.88;100.00
69198;BME280;56311;50.298;8.514;2022-08-11T07:52:34;62402.38;;;-147.88;100.00
69198;BME280;56311;50.298;8.514;2022-08-11T07:55:11;62402.38;;;-147.88;100.00
69198;BME280;56311;50.298;8.514;2022-08-11T07:57:42;62402.38;;;-147.88;100.00
69198;BME280;56311;50.298;8.514;2022-08-11T08:00:48;62402.38;;;-147.88;100.00
69198;BME280;56311;50.298;8.514;2022-08-11T08:03:48;62402.38;;;-147.88;100.00
69198;BME280;56311;50.298;8.514;2022-08-11T08:06:36;62402.38;;;-147.88;100.00
69198;BME280;56311;50.298;8.514;2022-08-11T08:09:24;62402.38;;;-147.88;100.00
69198;BME280;56311;50.298;8.514;2022-08-11T08:12:13;62402.38;;;-147.88;100.00
69198;BME280;56311;50.298;8.514;2022-08-11T08:15:00;62402.38;;;-147.88;100.00
69198;BME280;56311;50.298;8.514;2022-08-11T08:17:51;62402.38;;;-147.88;100.00
69198;BME280;56311;50.298;8.514;2022-08-11T08:20:44;62402.38;;;-147.88;100.00
69198;BME280;56311;50.298;8.514;2022-08-11T08:23:12;62402.38;;;-147.88;100.00
69198;BME280;56311;50.298;8.514;2022-08-11T08:25:42;62402.38;;;-147.88;100.00
69198;BME280;56311;50.298;8.514;2022-08-11T08:28:13;62402.38;;;-147.88;100.00
69198;BME280;56311;50.298;8.514;2022-08-11T08:30:42;62402.38;;;-147.88;100.00
69198;BME280;56311;50.298;8.514;2022-08-11T08:33:23;62402.38;;;-147.88;100.00
69198;BME280;56311;50.298;8.514;2022-08-11T08:35:53;62402.38;;;-147.88;100.00
69198;BME280;56311;50.298;8.514;2022-08-11T08:38:40;62402.38;;;-147.88;100.00
69198;BME280;56311;50.298;8.514;2022-08-11T08:41:09;62402.38;;;-147.88;100.00
69198;BME280;56311;50.298;8.514;2022-08-11T08:43:44;62402.38;;;-147.88;100.00
69198;BME280;56311;50.298;8.514;2022-08-11T08:46:19;62402.38;;;-147.88;100.00
69198;BME280;56311;50.298;8.514;2022-08-11T08:48:48;62402.38;;;-147.88;100.00
69198;BME280;56311;50.298;8.514;2022-08-11T08:51:20;62402.38;;;-147.88;100.00
69198;BME280;56311;50.298;8.514;2022-08-11T08:54:21;62402.38;;;-147.88;100.00
69198;BME280;56311;50.298;8.514;2022-08-11T08:56:54;62402.38;;;-147.88;100.00
69198;BME280;56311;50.298;8.514;2022-08-11T08:59:25;62402.38;;;-147.88;100.00
69198;BME280;56311;50.298;8.514;2022-08-11T09:02:13;62402.38;;;-147.88;100.00
69198;BME280;56311;50.298;8.514;2022-08-11T09:04:43;62402.38;;;-147.88;100.00
69198;BME280;56311;50.298;8.514;2022-08-11T09:07:15;62402.38;;;-147.88;100.00
69198;BME280;56311;50.298;8.514;2022-08-11T09:09:42;62402.38;;;-147.88;100.00
69198;BME280;56311;50.298;8.514;2022-08-11T09:12:10;62402.38;;;-147.88;100.00
69198;BME280;56311;50.298;8.514;2022-08-11T09:14:42;62402.38;;;-147.88;100.00
69198;BME280;56311;50.298;8.514;2022-08-11T09:17:29;62402.38;;;-147.88;100.00
69198;BME280;56311;50.298;8.514;2022-08-11T09:20:00;62402.38;;;-147.88;100.00
69198;BME280;56311;50.298;8.514;2022-08-11T09:22:31;62402.38;;;-147.88;100.00
69198;BME280;56311;50.298;8.514;2022-08-11T09:25:37;62402.38;;;-147.88;100.00
69198;BME280;56311;50.298;8.514;2022-08-11T09:28:23;62402.38;;;-147.88;100.00
69198;BME280;56311;50.298;8.514;2022-08-11T09:30:59;62402.38;;;-147.88;100.00
69198;BME280;56311;50.298;8.514;2022-08-11T09:33:27;62402.38;;;-147.88;100.00
69198;BME280;56311;50.298;8.514;2022-08-11T09:35:56;62402.38;;;-147.88;100.00
69198;BME280;56311;50.298;8.514;2022-08-11T09:38:25;62402.38;;;-147.88;100.00
69198;BME280;56311;50.298;8.514;2022-08-11T09:41:15;62402.38;;;-147.88;100.00
69198;BME280;56311;50.298;8.514;2022-08-11T09:43:44;62402.38;;;-147.88;100.00
69198;BME280;56311;50.298;8.514;2022-08-11T09:46:32;62402.38;;;-147.88;100.00
69198;BME280;56311;50.298;8.514;2022-08-11T09:49:00;62402.38;;;-147.88;100.00
69198;BME280;56311;50.298;8.514;2022-08-11T09:51:30;62402.38;;;-147.88;100.00
69198;BME280;56311;50.298;8.514;2022-08-11T09:54:00;62402.38;;;-147.88;100.00
69198;BME280;56311;50.298;8.514;2022-08-11T09:56:32;62402.38;;;-147.88;100.00
69198;BME280;56311;50.298;8.514;2022-08-11T09:59:21;62402.38;;;-147.88;100.00
69198;BME280;56311;50.298;8.514;2022-08-11T10:01:56;62402.38;;;-147.88;100.00
69198;BME280;56311;50.298;8.514;2022-08-11T10:04:32;62402.38;;;-147.88;100.00
69198;BME280;56311;50.298;8.514;2022-08-11T10:07:04;62402.38;;;-147.88;100.00
69198;BME280;56311;50.298;8.514;2022-08-11T10:09:39;62402.38;;;-147.88;100.00
69198;BME280;56311;50.298;8.514;2022-08-11T10:12:13;62402.38;;;-147.88;100.00
69198;BME280;56311;50.298;8.514;2022-08-11T10:14:44;62402.38;;;-147.88;100.00
69198;BME280;56311;50.298;8.514;2022-08-11T10:17:40;62402.38;;;-147.88;100.00
69198;BME280;56311;50.298;8.514;2022-08-11T10:20:29;62402.38;;;-147.88;100.00
69198;BME280;56311;50.298;8.514;2022-08-11T10:23:00;62402.38;;;-147.88;100.00
69198;BME280;56311;50.298;8.514;2022-08-11T10:25:47;62402.38;;;-147.88;100.00
69198;BME280;56311;50.298;8.514;2022-08-11T10:28:35;62402.38;;;-147.88;100.00
69198;BME280;56311;50.298;8.514;2022-08-11T10:31:23;62402.38;;;-147.88;100.00
69198;BME280;56311;50.298;8.514;2022-08-11T10:34:28;62402.38;;;-147.88;100.00
69198;BME280;56311;50.298;8.514;2022-08-11T10:36:57;62402.38;;;-147.88;100.00
69198;BME280;56311;50.298;8.514;2022-08-11T10:39:29;62402.38;;;-147.88;100.00
69198;BME280;56311;50.298;8.514;2022-08-11T10:41:57;62402.38;;;-147.88;100.00
69198;BME280;56311;50.298;8.514;2022-08-11T10:45:06;62402.38;;;-147.88;100.00
69198;BME280;56311;50.298;8.514;2022-08-11T10:47:56;62402.38;;;-147.88;100.00
69198;BME280;56311;50.298;8.514;2022-08-11T10:50:26;62402.38;;;-147.88;100.00
69198;BME280;56311;50.298;8.514;2022-08-11T10:53:13;62402.38;;;-147.88;100.00
69198;BME280;56311;50.298;8.514;2022-08-11T10:56:02;62402.38;;;-147.88;100.00
69198;BME280;56311;50.298;8.514;2022-08-11T10:58:50;62402.38;;;-147.88;100.00
69198;BME280;56311;50.298;8.514;2022-08-11T11:01:22;62402.38;;;-147.88;100.00
69198;BME280;56311;50.298;8.514;2022-08-11T11:03:54;62402.38;;;-147.88;100.00
69198;BME280;56311;50.298;8.514;2022-08-11T11:06:34;62402.38;;;-147.88;100.00
69198;BME280;56311;50.298;8.514;2022-08-11T11:09:06;62402.38;;;-147.88;100.00
69198;BME280;56311;50.298;8.514;2022-08-11T11:11:37;62402.38;;;-147.88;100.00
69198;BME280;56311;50.298;8.514;2022-08-11T11:14:29;62402.38;;;-147.88;100.00
69198;BME280;56311;50.298;8.514;2022-08-11T11:17:29;62402.38;;;-147.88;100.00
69198;BME280;56311;50.298;8.514;2022-08-11T11:20:21;62402.38;;;-147.88;100.00
69198;BME280;56311;50.298;8.514;2022-08-11T11:23:12;62402.38;;;-147.88;100.00
69198;BME280;56311;50.298;8.514;2022-08-11T11:25:56;62402.38;;;-147.88;100.00
69198;BME280;56311;50.298;8.514;2022-08-11T11:31:50;62402.38;;;-147.88;100.00
69198;BME280;56311;50.298;8.514;2022-08-11T11:34:41;62402.38;;;-147.88;100.00
69198;BME280;56311;50.298;8.514;2022-08-11T11:37:20;62402.38;;;-147.88;100.00
69198;BME280;56311;50.298;8.514;2022-08-11T11:39:51;62402.38;;;-147.88;100.00
69198;BME280;56311;50.298;8.514;2022-08-11T11:42:20;62402.38;;;-147.88;100.00
69198;BME280;56311;50.298;8.514;2022-08-11T11:44:49;62402.38;;;-147.88;100.00
69198;BME280;56311;50.298;8.514;2022-08-11T11:47:23;62402.38;;;-147.88;100.00
69198;BME280;56311;50.298;8.514;2022-08-11T11:49:52;62402.38;;;-147.88;100.00
69198;BME280;56311;50.298;8.514;2022-08-11T11:52:23;62402.38;;;-147.88;100.00
69198;BME280;56311;50.298;8.514;2022-08-11T11:54:55;62402.38;;;-147.88;100.00
69198;BME280;56311;50.298;8.514;2022-08-11T11:57:25;62402.38;;;-147.88;100.00
69198;BME280;56311;50.298;8.514;2022-08-11T12:00:26;62402.38;;;-147.88;100.00
69198;BME280;56311;50.298;8.514;2022-08-11T12:03:15;62402.38;;;-147.88;100.00
69198;BME280;56311;50.298;8.514;2022-08-11T12:05:45;62402.38;;;-147.88;100.00
69198;BME280;56311;50.298;8.514;2022-08-11T12:08:15;62402.38;;;-147.88;100.00
69198;BME280;56311;50.298;8.514;2022-08-11T12:10:47;62402.38;;;-147.88;100.00
69198;BME280;56311;50.298;8.514;2022-08-11T12:13:16;62402.38;;;-147.88;100.00
69198;BME280;56311;50.298;8.514;2022-08-11T12:16:05;62402.38;;;-147.88;100.00
69198;BME280;56311;50.298;8.514;2022-08-11T12:18:57;62402.38;;;-147.88;100.00
69198;BME280;56311;50.298;8.514;2022-08-11T12:21:27;62402.38;;;-147.88;100.00
69198;BME280;56311;50.298;8.514;2022-08-11T12:23:56;62402.38;;;-147.88;100.00
69198;BME280;56311;50.298;8.514;2022-08-11T12:26:45;62402.38;;;-147.88;100.00
69198;BME280;56311;50.298;8.514;2022-08-11T12:29:37;62402.38;;;-147.88;100.00
69198;BME280;56311;50.298;8.514;2022-08-11T12:32:10;62402.38;;;-147.88;100.00
69198;BME280;56311;50.298;8.514;2022-08-11T12:34:39;62402.38;;;-147.88;100.00
69198;BME280;56311;50.298;8.514;2022-08-11T12:37:09;62402.38;;;-147.88;100.00
69198;BME280;56311;50.298;8.514;2022-08-11T12:39:44;62402.38;;;-147.88;100.00
69198;BME280;56311;50.298;8.514;2022-08-11T12:42:59;62402.38;;;-147.88;100.00
69198;BME280;56311;50.298;8.514;2022-08-11T12:45:54;62402.38;;;-147.88;100.00
69198;BME280;56311;50.298;8.514;2022-08-11T12:48:28;62402.38;;;-147.88;100.00
69198;BME280;56311;50.298;8.514;2022-08-11T12:51:31;62402.38;;;-147.88;100.00
69198;BME280;56311;50.298;8.514;2022-08-11T12:54:45;62402.38;;;-147.88;100.00
69198;BME280;56311;50.298;8.514;2022-08-11T12:57:25;62402.38;;;-147.88;100.00
69198;BME280;56311;50.298;8.514;2022-08-11T13:00:15;62402.38;;;-147.88;100.00
69198;BME280;56311;50.298;8.514;2022-08-11T13:03:06;62402.38;;;-147.88;100.00
69198;BME280;56311;50.298;8.514;2022-08-11T13:05:54;62402.38;;;-147.88;100.00
69198;BME280;56311;50.298;8.514;2022-08-11T13:08:25;62402.38;;;-147.88;100.00
69198;BME280;56311;50.298;8.514;2022-08-11T13:10:57;62402.38;;;-147.88;100.00
69198;BME280;56311;50.298;8.514;2022-08-11T13:13:46;62402.38;;;-147.88;100.00
69198;BME280;56311;50.298;8.514;2022-08-11T13:16:27;62402.38;;;-147.88;100.00
69198;BME280;56311;50.298;8.514;2022-08-11T13:18:55;62402.38;;;-147.88;100.00
69198;BME280;56311;50.298;8.514;2022-08-11T13:21:26;62402.38;;;-147.88;100.00
69198;BME280;56311;50.298;8.514;2022-08-11T13:23:56;62402.38;;;-147.88;100.00
69198;BME280;56311;50.298;8.514;2022-08-11T13:26:30;62402.38;;;-147.88;100.00
69198;BME280;56311;50.298;8.514;2022-08-11T13:29:20;62402.38;;;-147.88;100.00
69198;BME280;56311;50.298;8.514;2022-08-11T13:31:53;62402.38;;;-147.88;100.00
69198;BME280;56311;50.298;8.514;2022-08-11T13:34:24;62402.38;;;-147.88;100.00
69198;BME280;56311;50.298;8.514;2022-08-11T13:36:56;62402.38;;;-147.88;100.00
69198;BME280;56311;50.298;8.514;2022-08-11T13:39:27;62402.38;;;-147.88;100.00
69198;BME280;56311;50.298;8.514;2022-08-11T13:41:59;62402.38;;;-147.88;100.00
69198;BME280;56311;50.298;8.514;2022-08-11T13:44:30;62402.38;;;-147.88;100.00
69198;BME280;56311;50.298;8.514;2022-08-11T13:47:04;62402.38;;;-147.88;100.00
69198;BME280;56311;50.298;8.514;2022-08-11T13:49:35;62402.38;;;-147.88;100.00
69198;BME280;56311;50.298;8.514;2022-08-11T13:52:09;62402.38;;;-147.88;100.00
69198;BME280;56311;50.298;8.514;2022-08-11T13:54:40;62402.38;;;-147.88;100.00
69198;BME280;56311;50.298;8.514;2022-08-11T13:57:11;62402.38;;;-147.88;100.00
69198;BME280;56311;50.298;8.514;2022-08-11T14:00:05;62402.38;;;-147.88;100.00
69198;BME280;56311;50.298;8.514;2022-08-11T14:02:53;62402.38;;;-147.88;100.00
69198;BME280;56311;50.298;8.514;2022-08-11T14:05:25;62402.38;;;-147.88;100.00
69198;BME280;56311;50.298;8.514;2022-08-11T14:07:59;62402.38;;;-147.88;100.00
69198;BME280;56311;50.298;8.514;2022-08-11T14:13:15;62402.38;;;-147.88;100.00
69198;BME280;56311;50.298;8.514;2022-08-11T14:16:19;62402.38;;;-147.88;100.00
69198;BME280;56311;50.298;8.514;2022-08-11T14:18:53;62402.38;;;-147.88;100.00
69198;BME280;56311;50.298;8.514;2022-08-11T14:21:23;62402.38;;;-147.88;100.00
69198;BME280;56311;50.298;8.514;2022-08-11T14:24:11;62402.38;;;-147.88;100.00
69198;BME280;56311;50.298;8.514;2022-08-11T14:26:40;62402.38;;;-147.88;100.00
69198;BME280;56311;50.298;8.514;2022-08-11T14:29:13;62402.38;;;-147.88;100.00
69198;BME280;56311;50.298;8.514;2022-08-11T14:31:44;62402.38;;;-147.88;100.00
69198;BME280;56311;50.298;8.514;2022-08-11T14:34:18;62402.38;;;-147.88;100.00
69198;BME280;56311;50.298;8.514;2022-08-11T14:36:51;62402.38;;;-147.88;100.00
69198;BME280;56311;50.298;8.514;2022-08-11T14:39:22;62402.38;;;-147.88;100.00
69198;BME280;56311;50.298;8.514;2022-08-11T14:41:54;62402.38;;;-147.88;100.00
69198;BME280;56311;50.298;8.514;2022-08-11T14:44:44;62402.38;;;-147.88;100.00
69198;BME280;56311;50.298;8.514;2022-08-11T14:47:35;62402.38;;;-147.88;100.00
69198;BME280;56311;50.298;8.514;2022-08-11T14:50:10;62402.38;;;-147.88;100.00
69198;BME280;56311;50.298;8.514;2022-08-11T14:52:48;62402.38;;;-147.88;100.00
69198;BME280;56311;50.298;8.514;2022-08-11T14:55:19;62402.38;;;-147.88;100.00
69198;BME280;56311;50.298;8.514;2022-08-11T14:58:09;62402.38;;;-147.88;100.00